| time (UTC) | temp C | wind direction | speed KPH | gust KPH | rain 1hr cm | rain 24hr cm | rain mn cm | humidity % | barometer mb |
| 20260506134127 | 11 | 246 | 0.0 | 0.0 | 0.00 | 0.00 | 0.00 | 93 | 1020.3 |
| 20260506133625 | 11 | 243 | 1.6 | 1.6 | 0.00 | 0.00 | 0.00 | 93 | 1020.3 |
| 20260506133122 | 11 | 261 | 1.6 | 3.2 | 0.00 | 0.00 | 0.00 | 93 | 1020.2 |
| 20260506132619 | 11 | 221 | 0.0 | 0.0 | 0.00 | 0.00 | 0.00 | 93 | 1020.3 |
| 20260506132116 | 11 | 240 | 1.6 | 3.2 | 0.00 | 0.00 | 0.00 | 93 | 1020.2 |
| 20260506131613 | 11 | 246 | 3.2 | 3.2 | 0.00 | 0.00 | 0.00 | 92 | 1020.3 |
| 20260506131110 | 11 | 257 | 0.0 | 0.0 | 0.00 | 0.00 | 0.00 | 92 | 1020.2 |
| 20260506130607 | 11 | 240 | 1.6 | 1.6 | 0.00 | 0.00 | 0.00 | 92 | 1019.9 |
| 20260506130104 | 11 | 242 | 4.8 | 8.0 | 0.00 | 0.00 | 0.00 | 92 | 1020.1 |
| 20260506125602 | 11 | 241 | 1.6 | 1.6 | 0.00 | 0.00 | 0.00 | 93 | 1020.2 |
| 20260506125100 | 11 | 248 | 4.8 | 4.8 | 0.00 | 0.00 | 0.00 | 92 | 1020.5 |
| 20260506124557 | 11 | 257 | 3.2 | 3.2 | 0.00 | 0.00 | 0.00 | 93 | 1020.2 |
| 20260506124055 | 11 | 239 | 0.0 | 1.6 | 0.00 | 0.00 | 0.00 | 93 | 1020.3 |
| 20260506123552 | 11 | 237 | 3.2 | 3.2 | 0.00 | 0.00 | 0.00 | 93 | 1020.4 |
| 20260506123051 | 11 | 252 | 3.2 | 3.2 | 0.00 | 0.00 | 0.00 | 93 | 1020.0 |
| 20260506122547 | 11 | 238 | 1.6 | 1.6 | 0.00 | 0.00 | 0.00 | 93 | 1020.1 |
| 20260506122045 | 11 | 236 | 3.2 | 3.2 | 0.00 | 0.00 | 0.00 | 93 | 1019.7 |
| 20260506121542 | 11 | 245 | 0.0 | 0.0 | 0.00 | 0.00 | 0.00 | 93 | 1020.0 |
| 20260506121038 | 11 | 249 | 0.0 | 1.6 | 0.00 | 0.00 | 0.00 | 93 | 1020.0 |
| 20260506120537 | 11 | 264 | 6.4 | 8.0 | 0.00 | 0.00 | 0.00 | 93 | 1019.8 |
| 20260506120034 | 11 | 249 | 1.6 | 3.2 | 0.00 | 0.00 | 0.00 | 93 | 1019.8 |
| 20260506115531 | 11 | 249 | 3.2 | 3.2 | 0.00 | 0.00 | 0.00 | 93 | 1019.9 |
| 20260506115030 | 11 | 245 | 0.0 | 1.6 | 0.00 | 0.00 | 0.00 | 93 | 1019.6 |
| 20260506114527 | 11 | 250 | 0.0 | 0.0 | 0.00 | 0.00 | 0.00 | 94 | 1019.9 |
| 20260506114025 | 11 | 250 | 1.6 | 1.6 | 0.00 | 0.00 | 0.00 | 93 | 1019.8 |
| 20260506113523 | 11 | 246 | 0.0 | 1.6 | 0.00 | 0.00 | 0.00 | 94 | 1019.9 |
| 20260506113020 | 11 | 246 | 1.6 | 1.6 | 0.00 | 0.00 | 0.00 | 94 | 1019.9 |
| 20260506112516 | 11 | 251 | 1.6 | 3.2 | 0.00 | 0.00 | 0.00 | 94 | 1019.7 |
| 20260506112014 | 11 | 252 | 1.6 | 3.2 | 0.00 | 0.00 | 0.00 | 94 | 1019.6 |
| 20260506111512 | 10 | 258 | 3.2 | 3.2 | 0.00 | 0.00 | 0.00 | 94 | 1019.5 |
| 20260506111009 | 10 | 277 | 1.6 | 1.6 | 0.00 | 0.00 | 0.00 | 94 | 1019.4 |
| 20260506110506 | 10 | 240 | 1.6 | 3.2 | 0.00 | 0.00 | 0.00 | 94 | 1019.4 |
| 20260506110003 | 10 | 262 | 3.2 | 4.8 | 0.00 | 0.00 | 0.00 | 95 | 1019.4 |
| 20260506105459 | 10 | 238 | 4.8 | 4.8 | 0.00 | 0.00 | 0.00 | 95 | 1019.1 |
| 20260506104957 | 10 | 242 | 3.2 | 3.2 | 0.00 | 0.00 | 0.00 | 95 | 1019.2 |
| 20260506104454 | 10 | 269 | 3.2 | 3.2 | 0.00 | 0.00 | 0.00 | 95 | 1019.1 |
| 20260506103953 | 10 | 251 | 0.0 | 1.6 | 0.00 | 0.00 | 0.00 | 95 | 1019.2 |
| 20260506103449 | 10 | 253 | 1.6 | 1.6 | 0.00 | 0.00 | 0.00 | 96 | 1018.9 |
| 20260506102946 | 10 | 264 | 3.2 | 4.8 | 0.00 | 0.00 | 0.00 | 96 | 1018.9 |
| 20260506102444 | 10 | 252 | 3.2 | 3.2 | 0.00 | 0.00 | 0.00 | 96 | 1018.9 |
| 20260506101941 | 10 | 243 | 0.0 | 0.0 | 0.00 | 0.00 | 0.00 | 96 | 1018.9 |
| 20260506101437 | 10 | 242 | 3.2 | 3.2 | 0.00 | 0.00 | 0.00 | 96 | 1018.9 |
| 20260506100935 | 10 | 245 | 0.0 | 0.0 | 0.00 | 0.00 | 0.00 | 97 | 1018.6 |
| 20260506100433 | 10 | 243 | 4.8 | 4.8 | 0.00 | 0.00 | 0.00 | 97 | 1018.8 |
| 20260506095931 | 10 | 252 | 3.2 | 3.2 | 0.00 | 0.00 | 0.00 | 97 | 1018.9 |
| 20260506095429 | 10 | 241 | 1.6 | 3.2 | 0.00 | 0.00 | 0.00 | 97 | 1018.8 |
| 20260506094925 | 10 | 233 | 3.2 | 3.2 | 0.00 | 0.00 | 0.00 | 97 | 1018.8 |
| 20260506094424 | 10 | 258 | 3.2 | 3.2 | 0.00 | 0.00 | 0.00 | 97 | 1018.6 |
| 20260506093921 | 10 | 257 | 4.8 | 4.8 | 0.00 | 0.00 | 0.00 | 97 | 1018.5 |
| 20260506093419 | 10 | 253 | 4.8 | 4.8 | 0.00 | 0.00 | 0.00 | 97 | 1018.7 |
| 20260506092916 | 10 | 249 | 1.6 | 1.6 | 0.00 | 0.00 | 0.00 | 96 | 1018.6 |
| 20260506092414 | 10 | 247 | 3.2 | 3.2 | 0.00 | 0.00 | 0.00 | 96 | 1018.7 |
| 20260506091910 | 10 | 256 | 1.6 | 1.6 | 0.00 | 0.00 | 0.00 | 96 | 1018.7 |
| 20260506091409 | 10 | 244 | 1.6 | 1.6 | 0.00 | 0.00 | 0.00 | 96 | 1018.5 |
| 20260506090905 | 10 | 242 | 4.8 | 4.8 | 0.00 | 0.00 | 0.00 | 96 | 1018.7 |
| 20260506090403 | 10 | 260 | 3.2 | 3.2 | 0.00 | 0.00 | 0.00 | 96 | 1018.3 |
| 20260506085900 | 10 | 245 | 3.2 | 3.2 | 0.00 | 0.00 | 0.00 | 96 | 1018.4 |
| 20260506085356 | 10 | 235 | 4.8 | 4.8 | 0.00 | 0.00 | 0.00 | 96 | 1018.3 |
| 20260506084853 | 10 | 215 | 1.6 | 4.8 | 0.00 | 0.00 | 0.00 | 96 | 1018.4 |
| 20260506084349 | 10 | 242 | 3.2 | 4.8 | 0.00 | 0.00 | 0.00 | 96 | 1018.5 |
| 20260506083846 | 10 | 240 | 1.6 | 1.6 | 0.00 | 0.00 | 0.00 | 96 | 1018.7 |
| 20260506083343 | 10 | 242 | 1.6 | 3.2 | 0.00 | 0.00 | 0.00 | 95 | 1018.4 |
| 20260506082841 | 10 | 243 | 3.2 | 3.2 | 0.00 | 0.00 | 0.00 | 95 | 1018.4 |
| 20260506082337 | 10 | 243 | 3.2 | 3.2 | 0.00 | 0.00 | 0.00 | 95 | 1018.5 |
| 20260506081833 | 10 | 248 | 4.8 | 4.8 | 0.00 | 0.00 | 0.00 | 95 | 1018.3 |
| 20260506081332 | 10 | 246 | 3.2 | 3.2 | 0.00 | 0.00 | 0.00 | 95 | 1018.6 |
| 20260506080829 | 10 | 218 | 4.8 | 4.8 | 0.00 | 0.00 | 0.00 | 95 | 1018.4 |
| 20260506080325 | 10 | 248 | 3.2 | 4.8 | 0.00 | 0.00 | 0.00 | 95 | 1018.3 |
| 20260506073310 | 10 | 245 | 6.4 | 9.7 | 0.00 | 0.00 | 0.00 | 94 | 1017.8 |
| 20260506072806 | 10 | 250 | 4.8 | 4.8 | 0.00 | 0.00 | 0.00 | 95 | 1018.0 |
| 20260506072305 | 10 | 272 | 6.4 | 8.0 | 0.00 | 0.00 | 0.00 | 95 | 1017.9 |
| 20260506071801 | 10 | 249 | 1.6 | 1.6 | 0.00 | 0.00 | 0.00 | 95 | 1017.8 |
| 20260506071259 | 10 | 240 | 6.4 | 8.0 | 0.00 | 0.00 | 0.00 | 95 | 1018.1 |
| 20260506070756 | 10 | 268 | 3.2 | 3.2 | 0.00 | 0.00 | 0.00 | 95 | 1017.8 |
| 20260506070253 | 10 | 253 | 4.8 | 8.0 | 0.00 | 0.00 | 0.00 | 95 | 1017.9 |
| 20260506062230 | 11 | 251 | 4.8 | 4.8 | 0.00 | 0.00 | 0.00 | 94 | 1017.5 |
| 20260506061726 | 11 | 240 | 4.8 | 8.0 | 0.00 | 0.00 | 0.00 | 93 | 1017.5 |
| 20260506061224 | 11 | 260 | 6.4 | 11.3 | 0.00 | 0.00 | 0.00 | 93 | 1017.7 |
| 20260506060722 | 11 | 232 | 4.8 | 8.0 | 0.00 | 0.00 | 0.00 | 93 | 1017.6 |
| 20260506060219 | 11 | 248 | 3.2 | 3.2 | 0.00 | 0.00 | 0.00 | 93 | 1017.7 |
| 20260506051150 | 11 | 266 | 4.8 | 4.8 | 0.00 | 0.00 | 0.00 | 91 | 1017.1 |
| 20260506050649 | 11 | 258 | 3.2 | 3.2 | 0.00 | 0.00 | 0.00 | 90 | 1016.8 |
| 20260506050146 | 12 | 249 | 1.6 | 1.6 | 0.00 | 0.00 | 0.00 | 90 | 1017.0 |
| 20260506044637 | 12 | 247 | 3.2 | 3.2 | 0.00 | 0.00 | 0.00 | 90 | 1016.8 |
| 20260506044134 | 12 | 233 | 1.6 | 1.6 | 0.00 | 0.00 | 0.00 | 89 | 1016.9 |
| 20260506043631 | 12 | 246 | 1.6 | 1.6 | 0.00 | 0.00 | 0.00 | 89 | 1016.7 |
| 20260506043129 | 12 | 246 | 0.0 | 1.6 | 0.00 | 0.00 | 0.00 | 88 | 1016.5 |
| 20260506042627 | 12 | 250 | 1.6 | 3.2 | 0.00 | 0.00 | 0.00 | 88 | 1016.6 |
| 20260506042125 | 12 | 243 | 1.6 | 3.2 | 0.00 | 0.00 | 0.00 | 87 | 1016.6 |
| 20260506041624 | 12 | 232 | 3.2 | 3.2 | 0.00 | 0.00 | 0.00 | 87 | 1016.4 |
| 20260506041120 | 12 | 243 | 1.6 | 1.6 | 0.00 | 0.00 | 0.00 | 87 | 1016.3 |
| 20260506040618 | 12 | 245 | 4.8 | 4.8 | 0.00 | 0.00 | 0.00 | 86 | 1016.2 |
| 20260506040114 | 13 | 255 | 3.2 | 3.2 | 0.00 | 0.00 | 0.00 | 86 | 1016.3 |
| 20260506035611 | 13 | 235 | 3.2 | 3.2 | 0.00 | 0.00 | 0.00 | 86 | 1016.3 |
| 20260506035108 | 13 | 259 | 3.2 | 3.2 | 0.00 | 0.00 | 0.00 | 86 | 1016.3 |
| 20260506034605 | 13 | 268 | 3.2 | 4.8 | 0.00 | 0.00 | 0.00 | 85 | 1016.1 |
| 20260506034102 | 13 | 235 | 4.8 | 4.8 | 0.00 | 0.00 | 0.00 | 85 | 1015.8 |
| 20260506033559 | 13 | 253 | 4.8 | 4.8 | 0.00 | 0.00 | 0.00 | 84 | 1015.8 |
| 20260506033056 | 13 | 234 | 3.2 | 4.8 | 0.00 | 0.00 | 0.00 | 83 | 1015.7 |
| 20260506032553 | 13 | 241 | 4.8 | 4.8 | 0.00 | 0.00 | 0.00 | 83 | 1015.9 |
| 20260506032050 | 13 | 239 | 4.8 | 4.8 | 0.00 | 0.00 | 0.00 | 83 | 1015.9 |
| 20260506031548 | 13 | 262 | 6.4 | 8.0 | 0.00 | 0.00 | 0.00 | 82 | 1015.7 |
| 20260506031044 | 14 | 251 | 6.4 | 8.0 | 0.00 | 0.00 | 0.00 | 82 | 1015.9 |
| 20260506030543 | 14 | 249 | 4.8 | 4.8 | 0.00 | 0.00 | 0.00 | 82 | 1015.8 |
| 20260506030039 | 14 | 232 | 4.8 | 8.0 | 0.00 | 0.00 | 0.00 | 81 | 1016.0 |
| 20260506025536 | 15 | 266 | 4.8 | 8.0 | 0.00 | 0.00 | 0.00 | 80 | 1015.9 |
| 20260506025032 | 15 | 267 | 6.4 | 8.0 | 0.00 | 0.00 | 0.00 | 80 | 1015.9 |
| 20260506024529 | 15 | 250 | 6.4 | 8.0 | 0.00 | 0.00 | 0.00 | 79 | 1015.9 |
| 20260506024026 | 15 | 226 | 6.4 | 8.0 | 0.00 | 0.00 | 0.00 | 79 | 1015.9 |
| 20260506023522 | 15 | 251 | 6.4 | 8.0 | 0.00 | 0.00 | 0.00 | 79 | 1015.8 |
| 20260506023020 | 15 | 256 | 4.8 | 8.0 | 0.00 | 0.00 | 0.00 | 78 | 1015.8 |
| 20260506022517 | 15 | 243 | 8.0 | 9.7 | 0.00 | 0.00 | 0.00 | 78 | 1016.0 |
| 20260506022014 | 15 | 250 | 9.7 | 11.3 | 0.00 | 0.00 | 0.00 | 77 | 1015.9 |
| 20260506021512 | 15 | 250 | 6.4 | 8.0 | 0.00 | 0.00 | 0.00 | 78 | 1015.9 |
| 20260506021009 | 15 | 248 | 6.4 | 9.7 | 0.00 | 0.00 | 0.00 | 78 | 1015.9 |
| 20260506020507 | 16 | 246 | 4.8 | 8.0 | 0.00 | 0.00 | 0.00 | 77 | 1015.7 |
| 20260506020004 | 16 | 250 | 4.8 | 8.0 | 0.00 | 0.00 | 0.00 | 77 | 1015.8 |
| 20260506015501 | 16 | 268 | 8.0 | 11.3 | 0.00 | 0.00 | 0.00 | 77 | 1016.0 |
| 20260506014957 | 16 | 246 | 4.8 | 8.0 | 0.00 | 0.00 | 0.00 | 77 | 1015.9 |
| 20260506014455 | 17 | 250 | 6.4 | 11.3 | 0.00 | 0.00 | 0.00 | 75 | 1015.9 |
| 20260506013951 | 17 | 248 | 3.2 | 3.2 | 0.00 | 0.00 | 0.00 | 74 | 1015.8 |
| 20260506013449 | 18 | 251 | 1.6 | 3.2 | 0.00 | 0.00 | 0.00 | 72 | 1015.9 |
| 20260506012945 | 18 | 264 | 0.0 | 1.6 | 0.00 | 0.00 | 0.00 | 73 | 1016.1 |
| 20260506012442 | 18 | 261 | 3.2 | 4.8 | 0.00 | 0.00 | 0.00 | 73 | 1015.9 |
| 20260506011939 | 18 | 262 | 3.2 | 3.2 | 0.00 | 0.00 | 0.00 | 73 | 1015.9 |
| 20260506011436 | 18 | 267 | 3.2 | 4.8 | 0.00 | 0.00 | 0.00 | 73 | 1016.1 |
| 20260506010933 | 18 | 259 | 3.2 | 3.2 | 0.00 | 0.00 | 0.00 | 74 | 1015.9 |
| 20260506010432 | 18 | 245 | 4.8 | 4.8 | 0.00 | 0.00 | 0.00 | 73 | 1015.8 |
| 20260506005927 | 18 | 243 | 4.8 | 8.0 | 0.00 | 0.00 | 0.00 | 73 | 1016.0 |
| 20260506005426 | 18 | 256 | 3.2 | 4.8 | 0.00 | 0.00 | 0.00 | 73 | 1015.9 |
| 20260506004920 | 17 | 247 | 3.2 | 3.2 | 0.00 | 0.00 | 0.00 | 74 | 1015.9 |
| 20260506004419 | 18 | 252 | 1.6 | 3.2 | 0.00 | 0.00 | 0.00 | 74 | 1015.8 |
| 20260506003914 | 18 | 256 | 4.8 | 4.8 | 0.00 | 0.00 | 0.00 | 74 | 1015.7 |
| 20260506003411 | 18 | 260 | 4.8 | 4.8 | 0.00 | 0.00 | 0.00 | 74 | 1015.9 |
| 20260506002908 | 18 | 244 | 1.6 | 1.6 | 0.00 | 0.00 | 0.00 | 73 | 1015.9 |
| 20260506002403 | 18 | 225 | 3.2 | 3.2 | 0.00 | 0.00 | 0.00 | 73 | 1015.9 |
| 20260506001859 | 18 | 254 | 4.8 | 4.8 | 0.00 | 0.00 | 0.00 | 71 | 1015.8 |
| 20260506001356 | 18 | 242 | 1.6 | 1.6 | 0.00 | 0.00 | 0.00 | 72 | 1015.8 |
| 20260506000853 | 18 | 250 | 3.2 | 3.2 | 0.00 | 0.00 | 0.00 | 73 | 1016.0 |
| 20260506000353 | 19 | 245 | 6.4 | 8.0 | 0.00 | 0.00 | 0.00 | 71 | 1016.1 |
| 20260505235848 | 19 | 200 | 0.0 | 1.6 | 0.00 | 0.00 | 0.00 | 72 | 1016.3 |
| 20260505235345 | 18 | 219 | 0.0 | 1.6 | 0.00 | 0.00 | 0.00 | 72 | 1016.1 |
| 20260505234842 | 18 | 205 | 3.2 | 3.2 | 0.00 | 0.00 | 0.00 | 72 | 1016.2 |
| 20260505234340 | 18 | 235 | 3.2 | 3.2 | 0.00 | 0.00 | 0.00 | 72 | 1016.1 |
| 20260505233836 | 18 | 209 | 1.6 | 3.2 | 0.00 | 0.00 | 0.00 | 73 | 1016.4 |
| 20260505233334 | 18 | 195 | 1.6 | 3.2 | 0.00 | 0.00 | 0.00 | 73 | 1016.4 |
| 20260505232832 | 18 | 253 | 4.8 | 8.0 | 0.00 | 0.00 | 0.00 | 71 | 1016.5 |
| 20260505232329 | 18 | 265 | 1.6 | 1.6 | 0.00 | 0.00 | 0.00 | 73 | 1016.4 |
| 20260505231825 | 18 | 258 | 6.4 | 8.0 | 0.00 | 0.00 | 0.00 | 71 | 1016.6 |
| 20260505231324 | 18 | 254 | 1.6 | 1.6 | 0.00 | 0.00 | 0.00 | 73 | 1016.4 |
| 20260505230822 | 18 | 260 | 4.8 | 8.0 | 0.00 | 0.00 | 0.00 | 73 | 1016.5 |
| 20260505230318 | 18 | 259 | 4.8 | 4.8 | 0.00 | 0.00 | 0.00 | 73 | 1016.5 |
| 20260505225815 | 18 | 241 | 6.4 | 8.0 | 0.00 | 0.00 | 0.00 | 71 | 1016.6 |
| 20260505225312 | 18 | 259 | 1.6 | 3.2 | 0.00 | 0.00 | 0.00 | 74 | 1016.7 |
| 20260505224807 | 17 | 224 | 6.4 | 8.0 | 0.00 | 0.00 | 0.00 | 75 | 1016.5 |
| 20260505224305 | 17 | 256 | 3.2 | 3.2 | 0.00 | 0.00 | 0.00 | 76 | 1016.8 |
| 20260505223802 | 17 | 254 | 3.2 | 3.2 | 0.00 | 0.00 | 0.00 | 76 | 1016.9 |
| 20260505223259 | 17 | 223 | 4.8 | 4.8 | 0.00 | 0.00 | 0.00 | 77 | 1016.8 |
| 20260505222755 | 16 | 249 | 0.0 | 1.6 | 0.00 | 0.00 | 0.00 | 78 | 1016.9 |
| 20260505222251 | 16 | 251 | 8.0 | 9.7 | 0.00 | 0.00 | 0.00 | 77 | 1016.9 |
| 20260505221748 | 17 | 244 | 0.0 | 1.6 | 0.00 | 0.00 | 0.00 | 77 | 1017.1 |
| 20260505221245 | 16 | 268 | 4.8 | 4.8 | 0.00 | 0.00 | 0.00 | 78 | 1016.9 |
| 20260505220742 | 16 | 257 | 6.4 | 8.0 | 0.00 | 0.00 | 0.00 | 77 | 1017.0 |
| 20260505220239 | 17 | 250 | 6.4 | 11.3 | 0.00 | 0.00 | 0.00 | 77 | 1017.2 |
| 20260505215737 | 16 | 245 | 6.4 | 8.0 | 0.00 | 0.00 | 0.00 | 78 | 1017.1 |
| 20260505215235 | 16 | 203 | 3.2 | 3.2 | 0.00 | 0.00 | 0.00 | 78 | 1017.2 |
| 20260505214733 | 16 | 252 | 3.2 | 3.2 | 0.00 | 0.00 | 0.00 | 78 | 1017.1 |
| 20260505214229 | 16 | 274 | 6.4 | 8.0 | 0.00 | 0.00 | 0.00 | 79 | 1017.0 |
| 20260505213726 | 16 | 243 | 4.8 | 8.0 | 0.00 | 0.00 | 0.00 | 78 | 1017.1 |
| 20260505213224 | 16 | 250 | 3.2 | 3.2 | 0.00 | 0.00 | 0.00 | 80 | 1017.2 |
| 20260505212719 | 16 | 248 | 1.6 | 4.8 | 0.00 | 0.00 | 0.00 | 78 | 1017.4 |
| 20260505212217 | 16 | 255 | 6.4 | 8.0 | 0.00 | 0.00 | 0.00 | 79 | 1017.3 |
| 20260505211714 | 16 | 223 | 4.8 | 8.0 | 0.00 | 0.00 | 0.00 | 80 | 1017.3 |
| 20260505211212 | 16 | 245 | 4.8 | 8.0 | 0.00 | 0.00 | 0.00 | 80 | 1017.3 |
| 20260505210708 | 16 | 263 | 8.0 | 8.0 | 0.00 | 0.00 | 0.00 | 79 | 1017.3 |
| 20260505210205 | 16 | 264 | 4.8 | 9.7 | 0.00 | 0.00 | 0.00 | 79 | 1017.3 |
| 20260505205703 | 16 | 239 | 4.8 | 4.8 | 0.00 | 0.00 | 0.00 | 79 | 1017.4 |
| 20260505205200 | 15 | 258 | 3.2 | 4.8 | 0.00 | 0.00 | 0.00 | 81 | 1017.4 |
| 20260505204656 | 16 | 201 | 4.8 | 4.8 | 0.00 | 0.00 | 0.00 | 79 | 1017.5 |
| 20260505204155 | 15 | 257 | 1.6 | 3.2 | 0.00 | 0.00 | 0.00 | 81 | 1017.2 |
| 20260505203652 | 16 | 241 | 1.6 | 1.6 | 0.00 | 0.00 | 0.00 | 80 | 1017.2 |
| 20260505203148 | 16 | 240 | 11.3 | 12.9 | 0.00 | 0.00 | 0.00 | 79 | 1017.1 |
| 20260505202643 | 15 | 251 | 3.2 | 3.2 | 0.00 | 0.00 | 0.00 | 81 | 1017.3 |
| 20260505202140 | 15 | 246 | 8.0 | 9.7 | 0.00 | 0.00 | 0.00 | 81 | 1017.2 |
| 20260505201637 | 16 | 253 | 6.4 | 8.0 | 0.00 | 0.00 | 0.00 | 80 | 1017.3 |
| 20260505201135 | 15 | 253 | 3.2 | 3.2 | 0.00 | 0.00 | 0.00 | 81 | 1017.3 |
| 20260505200633 | 16 | 247 | 4.8 | 9.7 | 0.00 | 0.00 | 0.00 | 79 | 1017.3 |
| 20260505200129 | 16 | 219 | 4.8 | 8.0 | 0.00 | 0.00 | 0.00 | 79 | 1017.1 |
| 20260505195625 | 16 | 270 | 8.0 | 9.7 | 0.00 | 0.00 | 0.00 | 80 | 1017.4 |
| 20260505195123 | 15 | 239 | 0.0 | 1.6 | 0.00 | 0.00 | 0.00 | 81 | 1017.3 |
| 20260505194620 | 15 | 259 | 1.6 | 3.2 | 0.00 | 0.00 | 0.00 | 81 | 1017.3 |
| 20260505194115 | 15 | 236 | 4.8 | 4.8 | 0.00 | 0.00 | 0.00 | 81 | 1017.4 |
| 20260505193613 | 15 | 245 | 8.0 | 9.7 | 0.00 | 0.00 | 0.00 | 82 | 1017.4 |
| 20260505193110 | 15 | 247 | 3.2 | 3.2 | 0.00 | 0.00 | 0.00 | 82 | 1017.5 |
| 20260505192609 | 15 | 253 | 6.4 | 8.0 | 0.00 | 0.00 | 0.00 | 82 | 1017.3 |
| 20260505192106 | 15 | 258 | 8.0 | 11.3 | 0.00 | 0.00 | 0.00 | 83 | 1017.4 |
| 20260505191604 | 15 | 256 | 4.8 | 4.8 | 0.00 | 0.00 | 0.00 | 83 | 1017.6 |
| 20260505191101 | 15 | 252 | 6.4 | 8.0 | 0.00 | 0.00 | 0.00 | 83 | 1017.5 |
| 20260505190556 | 15 | 260 | 4.8 | 8.0 | 0.00 | 0.00 | 0.00 | 83 | 1017.5 |
| 20260505190052 | 15 | 251 | 8.0 | 9.7 | 0.00 | 0.00 | 0.00 | 84 | 1017.5 |
| 20260505185549 | 15 | 235 | 8.0 | 11.3 | 0.00 | 0.00 | 0.00 | 83 | 1017.4 |
| 20260505185045 | 15 | 250 | 4.8 | 8.0 | 0.00 | 0.00 | 0.00 | 83 | 1017.3 |
| 20260505184542 | 15 | 206 | 3.2 | 3.2 | 0.00 | 0.00 | 0.00 | 83 | 1017.2 |
| 20260505184039 | 15 | 235 | 1.6 | 3.2 | 0.00 | 0.00 | 0.00 | 83 | 1017.6 |
| 20260505183535 | 15 | 243 | 9.7 | 14.5 | 0.00 | 0.00 | 0.00 | 82 | 1017.2 |
| 20260505183033 | 15 | 200 | 3.2 | 3.2 | 0.00 | 0.00 | 0.00 | 84 | 1017.2 |
| 20260505182529 | 15 | 248 | 3.2 | 3.2 | 0.00 | 0.00 | 0.00 | 84 | 1017.4 |
| 20260505182026 | 15 | 252 | 6.4 | 8.0 | 0.00 | 0.00 | 0.00 | 83 | 1017.1 |
| 20260505181523 | 14 | 165 | 4.8 | 8.0 | 0.00 | 0.00 | 0.00 | 84 | 1017.4 |
| 20260505181020 | 14 | 107 | 4.8 | 8.0 | 0.00 | 0.00 | 0.00 | 84 | 1017.4 |
| 20260505180516 | 14 | 232 | 3.2 | 4.8 | 0.00 | 0.00 | 0.00 | 85 | 1017.3 |
| 20260505180014 | 14 | 231 | 1.6 | 1.6 | 0.00 | 0.00 | 0.00 | 85 | 1017.2 |
| 20260505175508 | 14 | 239 | 0.0 | 1.6 | 0.00 | 0.00 | 0.00 | 85 | 1017.4 |
| 20260505175006 | 14 | 218 | 3.2 | 3.2 | 0.00 | 0.00 | 0.00 | 85 | 1017.4 |
| 20260505174503 | 14 | 256 | 4.8 | 4.8 | 0.00 | 0.00 | 0.00 | 85 | 1017.3 |
| 20260505173959 | 14 | 260 | 3.2 | 8.0 | 0.00 | 0.00 | 0.00 | 85 | 1017.3 |
| 20260505173455 | 14 | 206 | 3.2 | 3.2 | 0.00 | 0.00 | 0.00 | 85 | 1017.0 |
| 20260505172952 | 14 | 219 | 1.6 | 1.6 | 0.00 | 0.00 | 0.00 | 86 | 1017.2 |
| 20260505172451 | 14 | 246 | 3.2 | 3.2 | 0.00 | 0.00 | 0.00 | 86 | 1017.0 |
| 20260505171950 | 13 | 181 | 6.4 | 8.0 | 0.00 | 0.00 | 0.00 | 86 | 1016.9 |
| 20260505171447 | 13 | 155 | 4.8 | 4.8 | 0.00 | 0.00 | 0.00 | 86 | 1017.1 |
| 20260505170944 | 13 | 191 | 3.2 | 4.8 | 0.00 | 0.00 | 0.00 | 87 | 1017.2 |
| 20260505170440 | 13 | 243 | 1.6 | 1.6 | 0.00 | 0.00 | 0.00 | 87 | 1017.2 |
| 20260505165936 | 13 | 243 | 1.6 | 3.2 | 0.00 | 0.00 | 0.00 | 88 | 1016.8 |
| 20260505165432 | 13 | 237 | 3.2 | 3.2 | 0.00 | 0.00 | 0.00 | 87 | 1017.0 |
| 20260505164927 | 13 | 247 | 3.2 | 3.2 | 0.00 | 0.00 | 0.00 | 88 | 1017.1 |
| 20260505164424 | 13 | 243 | 4.8 | 9.7 | 0.00 | 0.00 | 0.00 | 88 | 1016.9 |
| 20260505163922 | 13 | 266 | 3.2 | 4.8 | 0.00 | 0.00 | 0.00 | 88 | 1017.0 |
| 20260505163421 | 13 | 198 | 4.8 | 4.8 | 0.00 | 0.00 | 0.00 | 88 | 1017.0 |
| 20260505162920 | 13 | 252 | 4.8 | 4.8 | 0.00 | 0.00 | 0.00 | 89 | 1017.0 |
| 20260505162415 | 13 | 266 | 0.0 | 1.6 | 0.00 | 0.00 | 0.00 | 89 | 1017.1 |
| 20260505161912 | 13 | 257 | 1.6 | 3.2 | 0.00 | 0.00 | 0.00 | 89 | 1017.2 |
| 20260505161409 | 13 | 238 | 4.8 | 8.0 | 0.00 | 0.00 | 0.00 | 90 | 1017.2 |
| 20260505160906 | 13 | 195 | 3.2 | 4.8 | 0.00 | 0.00 | 0.00 | 90 | 1017.0 |
| 20260505160404 | 13 | 224 | 1.6 | 3.2 | 0.00 | 0.00 | 0.00 | 90 | 1017.0 |
| 20260505153343 | 12 | 235 | 4.8 | 8.0 | 0.00 | 0.00 | 0.00 | 91 | 1016.9 |
| 20260505152840 | 13 | 249 | 4.8 | 8.0 | 0.00 | 0.00 | 0.00 | 91 | 1017.1 |
| 20260505152338 | 13 | 241 | 6.4 | 11.3 | 0.00 | 0.00 | 0.00 | 91 | 1017.0 |
| 20260505151832 | 12 | 222 | 3.2 | 4.8 | 0.00 | 0.00 | 0.00 | 91 | 1016.9 |
| 20260505151329 | 12 | 260 | 1.6 | 3.2 | 0.00 | 0.00 | 0.00 | 91 | 1016.6 |
| 20260505150826 | 12 | 243 | 1.6 | 3.2 | 0.00 | 0.00 | 0.00 | 92 | 1016.8 |
| 20260505150323 | 12 | 238 | 3.2 | 4.8 | 0.00 | 0.00 | 0.00 | 92 | 1016.6 |
| 20260505140252 | 12 | 249 | 3.2 | 3.2 | 0.00 | 0.00 | 0.00 | 94 | 1016.0 |